Time;durP1;ratioP1;P1;durP2;ratioP2;P2;SDS_P1;SDS_P2;PMS_P1;PMS_P2;Temp;Humidity;BMP_temperature;BMP_pressure;BME280_temperature;BME280_humidity;BME280_pressure;Samples;Min_cycle;Max_cycle;Signal;HPM_P1;HPM_P2
2022/09/21 00:01:16;;;;;;;0.95;0.68;;;;;;;7.74;83.51;94788.91;5132095;27;20712;-72
2022/09/21 00:03:44;;;;;;;1.73;1.13;;;;;;;7.68;83.86;94790.09;5132920;27;20197;-72
2022/09/21 00:06:13;;;;;;;0.75;0.75;;;;;;;7.67;83.78;94799.28;5132068;27;20735;-72
2022/09/21 00:08:41;;;;;;;1.08;0.80;;;;;;;7.73;83.66;94787.31;5132180;27;20254;-72
2022/09/21 00:11:12;;;;;;;2.42;0.57;;;;;;;7.71;83.59;94799.50;5132196;27;20220;-72
2022/09/21 00:13:39;;;;;;;0.60;0.60;;;;;;;7.65;83.86;94796.13;5131851;27;20730;-72
2022/09/21 00:16:07;;;;;;;1.20;1.10;;;;;;;7.56;84.63;94797.13;5132009;27;20197;-72
2022/09/21 00:18:35;;;;;;;0.95;0.90;;;;;;;7.55;84.93;94796.34;5132288;27;20197;-72
2022/09/21 00:21:02;;;;;;;1.33;0.80;;;;;;;7.43;85.70;94794.19;5131512;27;20233;-72
2022/09/21 00:23:29;;;;;;;1.02;1.00;;;;;;;7.42;85.83;94791.78;5131620;27;20201;-72
2022/09/21 00:26:04;;;;;;;1.30;1.05;;;;;;;7.39;85.38;94792.38;5117875;27;20394;-72
2022/09/21 00:28:33;;;;;;;3.15;2.70;;;;;;;7.35;85.85;94792.22;5126481;27;20224;-72
2022/09/21 00:31:02;;;;;;;3.97;2.72;;;;;;;7.33;85.97;94782.84;5131787;27;20254;-72
2022/09/21 00:33:29;;;;;;;4.72;3.20;;;;;;;7.38;86.21;94785.44;5131958;27;20297;-72
2022/09/21 00:35:55;;;;;;;5.70;3.20;;;;;;;7.39;86.32;94781.59;5131785;27;20204;-73
2022/09/21 00:38:22;;;;;;;4.32;2.97;;;;;;;7.52;85.19;94786.16;5131653;27;20332;-72
2022/09/21 00:40:49;;;;;;;6.63;3.33;;;;;;;7.42;84.76;94786.41;5130900;27;20264;-73
2022/09/21 00:43:17;;;;;;;6.05;3.35;;;;;;;7.27;84.99;94798.31;5131475;27;20265;-72
2022/09/21 00:45:49;;;;;;;3.90;2.78;;;;;;;7.25;84.96;94799.69;5131563;27;20265;-72
2022/09/21 00:48:16;;;;;;;0.70;0.70;;;;;;;7.11;85.01;94797.03;5131494;27;20531;-72
2022/09/21 00:50:49;;;;;;;2.80;1.30;;;;;;;7.04;85.21;94781.28;5131286;27;20234;-72
2022/09/21 00:53:16;;;;;;;3.97;1.10;;;;;;;7.03;85.26;94779.69;5131601;27;20236;-72
2022/09/21 00:55:48;;;;;;;1.67;1.17;;;;;;;6.96;85.55;94784.69;5131403;27;20222;-72
2022/09/21 00:58:19;;;;;;;1.48;1.13;;;;;;;6.90;87.88;94790.47;5131173;27;20276;-72
2022/09/21 01:00:47;;;;;;;0.80;0.80;;;;;;;6.81;89.02;94787.69;5131675;27;20209;-72
2022/09/21 01:03:13;;;;;;;1.25;0.75;;;;;;;6.74;89.28;94792.66;5131325;27;20197;-72
2022/09/21 01:05:41;;;;;;;1.10;0.85;;;;;;;6.67;89.54;94781.50;5131290;27;21043;-72
2022/09/21 01:08:11;;;;;;;1.20;0.95;;;;;;;6.62;89.76;94786.97;5131409;27;20209;-71
2022/09/21 01:10:51;;;;;;;1.83;1.15;;;;;;;6.63;89.84;94785.88;5130903;27;20232;-73
2022/09/21 01:13:28;;;;;;;4.45;3.10;;;;;;;6.70;89.86;94791.66;5130853;27;20233;-72
2022/09/21 01:16:06;;;;;;;3.35;2.83;;;;;;;6.65;89.50;94783.69;5130914;27;20197;-73
2022/09/21 01:18:40;;;;;;;4.22;2.72;;;;;;;6.73;88.76;94785.69;5131103;27;20204;-72
2022/09/21 01:21:19;;;;;;;0.43;0.43;;;;;;;6.67;88.67;94781.50;5130971;27;20242;-72
2022/09/21 01:24:23;;;;;;;0.75;0.70;;;;;;;6.41;89.21;94792.75;5130819;27;20228;-72
2022/09/21 01:27:21;;;;;;;3.95;2.75;;;;;;;6.55;89.10;94784.69;5130404;27;20273;-73
2022/09/21 01:29:55;;;;;;;3.15;2.75;;;;;;;6.64;89.09;94782.91;5130907;27;20209;-73
2022/09/21 01:32:26;;;;;;;3.33;2.35;;;;;;;6.66;88.78;94779.91;5130410;27;20216;-73
2022/09/21 01:34:59;;;;;;;3.45;2.90;;;;;;;6.62;88.75;94774.31;5131091;27;20189;-72
2022/09/21 01:37:32;;;;;;;3.30;2.78;;;;;;;6.59;88.91;94774.09;5130657;27;20211;-72
2022/09/21 01:40:04;;;;;;;0.65;0.65;;;;;;;6.70;89.14;94770.13;5129962;27;20193;-73
2022/09/21 01:42:34;;;;;;;0.68;0.68;;;;;;;6.81;88.52;94776.91;5130088;27;20189;-71
2022/09/21 01:45:05;;;;;;;1.23;0.70;;;;;;;6.90;88.08;94764.34;5130209;27;20196;-72
2022/09/21 01:47:36;;;;;;;0.98;0.85;;;;;;;6.91;87.78;94770.53;5130217;27;20233;-73
2022/09/21 01:50:05;;;;;;;0.70;0.70;;;;;;;6.95;87.71;94761.56;5130337;28;20532;-71
2022/09/21 01:52:40;;;;;;;1.33;0.95;;;;;;;6.96;87.30;94763.16;5134618;27;20854;-71
2022/09/21 01:55:12;;;;;;;0.93;0.93;;;;;;;6.97;87.29;94770.09;5134954;27;20204;-73
2022/09/21 01:57:45;;;;;;;2.13;0.98;;;;;;;6.92;86.88;94762.16;5134708;27;20234;-71
2022/09/21 02:00:15;;;;;;;1.05;0.98;;;;;;;6.87;87.53;94770.31;5134467;27;20991;-72
2022/09/21 02:02:49;;;;;;;0.40;0.40;;;;;;;6.86;87.63;94768.72;5134887;27;20208;-72
2022/09/21 02:05:18;;;;;;;0.75;0.75;;;;;;;6.88;87.27;94761.16;5134496;27;20717;-72
2022/09/21 02:07:46;;;;;;;0.85;0.60;;;;;;;6.85;87.35;94761.75;5134226;27;20208;-71
2022/09/21 02:10:20;;;;;;;0.93;0.82;;;;;;;6.72;87.81;94765.25;5134658;27;20205;-72
2022/09/21 02:12:49;;;;;;;1.35;0.90;;;;;;;6.57;88.36;94766.34;5134216;27;20237;-73
2022/09/21 02:15:21;;;;;;;2.80;1.52;;;;;;;6.51;89.08;94772.94;5134216;27;20213;-72
2022/09/21 02:18:00;;;;;;;1.13;1.05;;;;;;;6.38;89.74;94773.72;5133954;27;20238;-71
2022/09/21 02:20:32;;;;;;;0.50;0.50;;;;;;;6.34;90.01;94778.09;5134233;27;20197;-72
2022/09/21 02:23:06;;;;;;;1.33;0.85;;;;;;;6.43;89.99;94777.09;5134426;27;20209;-72
2022/09/21 02:25:41;;;;;;;1.23;0.90;;;;;;;6.44;89.83;94783.25;5134156;27;20816;-72
2022/09/21 02:28:19;;;;;;;1.38;1.05;;;;;;;6.45;89.79;94784.06;5133926;27;20212;-72
2022/09/21 02:30:56;;;;;;;0.73;0.73;;;;;;;6.48;89.77;94786.16;5133922;27;20193;-72
2022/09/21 02:33:26;;;;;;;4.13;0.95;;;;;;;6.34;90.04;94789.63;5133978;27;20221;-71
2022/09/21 02:36:00;;;;;;;1.02;0.93;;;;;;;6.41;90.01;94792.75;5133931;27;20197;-73
2022/09/21 02:38:35;;;;;;;1.13;0.82;;;;;;;6.45;89.59;94784.06;5134265;27;20194;-73
2022/09/21 02:41:08;;;;;;;0.88;0.88;;;;;;;6.28;89.75;94785.47;5134190;27;20185;-73
2022/09/21 02:43:39;;;;;;;0.68;0.68;;;;;;;6.26;89.75;94787.66;5133678;27;20713;-73
2022/09/21 02:46:14;;;;;;;1.08;0.88;;;;;;;6.17;90.16;94784.03;5134077;27;20248;-73
2022/09/21 02:48:47;;;;;;;0.45;0.45;;;;;;;6.28;89.99;94782.78;5120004;27;20248;-73
2022/09/21 02:51:17;;;;;;;0.77;0.77;;;;;;;6.37;89.77;94789.06;5133645;27;20201;-72
2022/09/21 02:53:46;;;;;;;0.90;0.90;;;;;;;6.36;89.00;94792.03;5133657;27;20671;-73
2022/09/21 02:56:14;;;;;;;0.63;0.60;;;;;;;6.42;88.99;94791.63;5133840;27;20656;-73
2022/09/21 02:58:46;;;;;;;0.95;0.90;;;;;;;6.25;89.21;94790.63;5133660;27;20576;-73
2022/09/21 03:01:16;;;;;;;1.17;0.50;;;;;;;6.30;89.44;94788.63;5132949;27;20204;-72
2022/09/21 03:03:43;;;;;;;0.93;0.93;;;;;;;6.30;89.44;94790.53;5132431;27;20193;-72
2022/09/21 03:06:10;;;;;;;2.25;1.05;;;;;;;6.17;89.68;94789.41;5133290;27;20205;-74
2022/09/21 03:08:38;;;;;;;1.17;0.73;;;;;;;6.05;90.20;94786.38;5133614;27;20216;-73
2022/09/21 03:11:05;;;;;;;1.77;0.90;;;;;;;6.07;90.50;94794.97;5133287;27;20564;-73
2022/09/21 03:13:32;;;;;;;0.57;0.50;;;;;;;6.14;90.14;94790.00;5133583;27;20228;-73
2022/09/21 03:16:01;;;;;;;2.05;0.70;;;;;;;6.10;90.09;94791.69;5133955;27;20209;-72
2022/09/21 03:18:30;;;;;;;1.65;0.95;;;;;;;6.05;90.71;94795.25;5132933;27;20623;-72
2022/09/21 03:20:57;;;;;;;0.73;0.73;;;;;;;6.08;90.33;94785.81;5132598;27;20262;-72
2022/09/21 03:23:24;;;;;;;0.50;0.50;;;;;;;6.07;90.13;94782.31;5133288;27;20218;-74
2022/09/21 03:25:52;;;;;;;1.33;0.85;;;;;;;6.17;89.79;94785.91;5133131;27;20660;-73
2022/09/21 03:28:19;;;;;;;3.85;2.92;;;;;;;6.11;89.33;94789.81;5133175;27;20279;-73
2022/09/21 03:30:48;;;;;;;1.05;0.68;;;;;;;5.92;89.46;94779.09;5132674;27;20208;-73
2022/09/21 03:33:15;;;;;;;1.38;1.15;;;;;;;5.96;89.98;94793.53;5132429;27;20495;-71
2022/09/21 03:35:43;;;;;;;1.42;0.93;;;;;;;6.04;89.90;94790.97;5133163;27;20282;-74
2022/09/21 03:38:10;;;;;;;2.88;1.50;;;;;;;5.94;89.70;94795.72;5132550;27;20270;-73
2022/09/21 03:40:37;;;;;;;0.88;0.88;;;;;;;5.98;89.71;94799.44;5132613;27;20257;-73
2022/09/21 03:43:03;;;;;;;0.80;0.80;;;;;;;6.03;89.62;94791.25;5132480;27;20230;-73
2022/09/21 03:45:30;;;;;;;1.80;1.13;;;;;;;6.03;89.38;94800.13;5132761;27;20189;-74
2022/09/21 03:47:59;;;;;;;3.70;1.25;;;;;;;5.90;90.12;94790.13;5132414;27;20200;-73
2022/09/21 03:50:28;;;;;;;0.60;0.60;;;;;;;5.93;89.82;94796.81;5131945;27;20236;-73
2022/09/21 03:52:57;;;;;;;1.27;0.75;;;;;;;5.89;89.11;94793.09;5132189;27;20319;-73
2022/09/21 03:55:24;;;;;;;1.13;1.02;;;;;;;5.85;89.47;94797.47;5132465;27;20280;-73
2022/09/21 03:57:50;;;;;;;2.30;0.98;;;;;;;5.88;89.76;94799.53;5132519;27;20205;-73
2022/09/21 04:00:17;;;;;;;0.90;0.82;;;;;;;5.88;89.22;94804.91;5132428;27;20600;-72
2022/09/21 04:02:44;;;;;;;0.65;0.65;;;;;;;5.58;90.05;94798.16;5132248;27;20223;-74
2022/09/21 04:05:14;;;;;;;0.50;0.50;;;;;;;5.70;90.63;94799.28;5132238;27;20197;-75
2022/09/21 04:07:44;;;;;;;1.48;0.73;;;;;;;5.79;89.95;94799.41;5131780;27;20250;-74
2022/09/21 04:10:15;;;;;;;1.10;0.95;;;;;;;5.93;89.44;94810.25;5132064;27;20288;-74
2022/09/21 04:12:43;;;;;;;1.20;1.10;;;;;;;5.96;89.99;94798.91;5131654;27;20688;-72
2022/09/21 04:15:11;;;;;;;3.50;3.05;;;;;;;6.05;90.26;94807.91;5130572;27;20205;-71
2022/09/21 04:17:38;;;;;;;3.72;2.83;;;;;;;6.02;90.34;94806.59;5132030;27;20208;-73
2022/09/21 04:20:06;;;;;;;3.85;2.78;;;;;;;6.05;90.68;94803.31;5131815;27;20201;-73
2022/09/21 04:22:33;;;;;;;3.65;2.55;;;;;;;6.21;90.55;94801.19;5131169;27;20205;-72
2022/09/21 04:25:00;;;;;;;1.77;1.15;;;;;;;6.40;89.76;94801.91;5131089;27;20201;-73
2022/09/21 04:27:28;;;;;;;4.10;1.08;;;;;;;6.58;88.87;94802.91;5131695;27;20217;-72
2022/09/21 04:29:55;;;;;;;2.50;1.33;;;;;;;6.64;88.43;94803.63;5131897;27;20242;-72
2022/09/21 04:32:22;;;;;;;2.38;0.80;;;;;;;6.73;88.10;94802.63;5130034;27;20250;-73
2022/09/21 04:34:49;;;;;;;2.90;1.10;;;;;;;6.92;87.98;94805.22;5131742;27;20257;-73
2022/09/21 04:37:16;;;;;;;0.60;0.60;;;;;;;7.33;87.67;94801.69;5131570;27;20656;-72
2022/09/21 04:39:42;;;;;;;1.45;1.02;;;;;;;8.57;84.08;94791.19;5131283;27;20230;-72
2022/09/21 04:42:10;;;;;;;0.93;0.85;;;;;;;9.61;79.21;94785.75;5131437;27;20216;-72
2022/09/21 04:44:38;;;;;;;2.55;1.67;;;;;;;10.31;75.32;94786.53;5131849;27;20617;-72
2022/09/21 04:47:05;;;;;;;1.40;1.30;;;;;;;10.36;73.96;94794.50;5131865;27;20197;-72
2022/09/21 04:49:32;;;;;;;1.67;0.93;;;;;;;10.64;73.38;94784.06;5131066;27;20241;-72
2022/09/21 04:51:59;;;;;;;1.10;1.02;;;;;;;11.21;71.60;94776.31;5131124;27;20633;-73
2022/09/21 04:54:26;;;;;;;1.25;1.15;;;;;;;11.08;70.13;94777.34;5131204;27;20229;-73
2022/09/21 04:56:52;;;;;;;1.40;1.00;;;;;;;11.53;69.53;94771.34;5131551;27;20312;-72
2022/09/21 04:59:19;;;;;;;1.10;1.00;;;;;;;12.17;66.32;94774.50;5131365;27;20259;-72
2022/09/21 05:01:48;;;;;;;1.13;1.02;;;;;;;11.64;66.39;94769.81;5131719;27;20193;-73
2022/09/21 05:04:15;;;;;;;1.25;1.15;;;;;;;11.22;68.07;94777.91;5131035;27;20675;-73
2022/09/21 05:06:41;;;;;;;0.70;0.70;;;;;;;10.51;70.62;94791.28;5131117;27;20278;-73
2022/09/21 05:11:53;;;;;;;2.17;1.20;;;;;;;10.45;72.35;94792.56;5130851;27;20228;-73
2022/09/21 05:14:20;;;;;;;1.98;1.35;;;;;;;10.35;72.83;94798.31;5130973;27;20236;-73
2022/09/21 05:16:49;;;;;;;2.22;1.55;;;;;;;10.84;71.71;94798.81;5131229;27;20250;-72
2022/09/21 05:19:16;;;;;;;2.03;1.38;;;;;;;10.71;71.88;94791.69;5131107;27;20836;-73
2022/09/21 05:21:43;;;;;;;1.85;1.00;;;;;;;11.09;70.41;94792.47;5130981;27;20197;-73
2022/09/21 05:24:10;;;;;;;1.25;1.08;;;;;;;11.36;69.72;94780.38;5130815;27;20716;-72
2022/09/21 05:26:37;;;;;;;1.15;0.90;;;;;;;11.48;69.03;94796.72;5130454;27;20221;-73
2022/09/21 05:29:04;;;;;;;1.42;1.30;;;;;;;11.76;68.30;94780.75;5130579;27;20201;-71
2022/09/21 05:31:46;;;;;;;5.15;1.42;;;;;;;12.76;65.67;94782.38;5130851;27;20605;-72
2022/09/21 05:34:39;;;;;;;3.92;1.77;;;;;;;13.43;62.35;94775.66;5117937;27;20238;-72
2022/09/21 05:37:14;;;;;;;0.55;0.52;;;;;;;13.22;62.70;94770.34;5109951;27;20197;-72
2022/09/21 05:39:41;;;;;;;0.43;0.43;;;;;;;13.70;61.97;94774.13;5130416;27;20650;-73
2022/09/21 05:42:10;;;;;;;1.00;0.73;;;;;;;13.09;62.71;94766.00;5130607;27;20209;-73
2022/09/21 05:44:37;;;;;;;0.60;0.60;;;;;;;13.38;62.43;94768.53;5130937;27;20269;-74
2022/09/21 05:47:13;;;;;;;0.30;0.30;;;;;;;13.30;63.17;94771.34;5130866;27;20204;-73
2022/09/21 05:49:50;;;;;;;0.40;0.40;;;;;;;13.25;63.26;94775.09;5130145;28;20223;-73
2022/09/21 05:52:30;;;;;;;0.20;0.20;;;;;;;13.25;63.81;94777.84;5127393;28;20601;-72
2022/09/21 05:55:07;;;;;;;0.45;0.38;;;;;;;12.16;65.59;94783.03;5129123;28;20249;-74
2022/09/21 05:57:45;;;;;;;0.47;0.47;;;;;;;11.71;66.35;94778.25;5130243;28;20720;-73
2022/09/21 06:00:17;;;;;;;0.25;0.25;;;;;;;11.84;66.99;94782.63;5130628;28;20536;-73
2022/09/21 06:03:08;;;;;;;0.28;0.28;;;;;;;11.74;67.48;94777.59;5130502;27;20715;-73
2022/09/21 06:05:36;;;;;;;0.43;0.43;;;;;;;12.10;66.90;94780.50;5130428;27;20655;-71
2022/09/21 06:08:03;;;;;;;0.20;0.20;;;;;;;12.62;64.56;94777.25;5130203;28;20686;-73
2022/09/21 06:10:34;;;;;;;0.43;0.40;;;;;;;12.70;64.64;94773.69;5130767;27;20277;-73
2022/09/21 06:13:01;;;;;;;3.35;0.40;;;;;;;12.81;64.79;94782.97;5130212;28;20272;-73
2022/09/21 06:15:28;;;;;;;1.00;0.90;;;;;;;13.11;62.68;94780.06;5130405;28;20240;-72
2022/09/21 06:17:54;;;;;;;0.40;0.40;;;;;;;13.16;63.25;94782.56;5129872;28;20249;-72
2022/09/21 06:20:22;;;;;;;0.22;0.22;;;;;;;12.91;63.21;94775.50;5129898;28;20234;-72
2022/09/21 06:22:50;;;;;;;0.47;0.47;;;;;;;13.49;61.44;94769.66;5129699;27;20193;-71
2022/09/21 06:25:17;;;;;;;0.22;0.22;;;;;;;13.87;60.31;94784.75;5129408;28;20277;-72
2022/09/21 06:27:44;;;;;;;0.20;0.20;;;;;;;13.26;61.24;94787.56;5130271;28;20197;-72
2022/09/21 06:30:12;;;;;;;0.20;0.20;;;;;;;12.98;62.89;94798.31;5124823;28;20185;-72
2022/09/21 06:32:38;;;;;;;0.40;0.40;;;;;;;13.00;62.41;94790.56;5129728;28;20201;-72
2022/09/21 06:35:07;;;;;;;0.55;0.47;;;;;;;13.71;60.92;94792.06;5130241;28;20619;-73
2022/09/21 06:37:33;;;;;;;1.40;1.00;;;;;;;13.61;61.47;94781.66;5130025;27;20555;-74
2022/09/21 06:40:02;;;;;;;1.40;0.82;;;;;;;13.37;61.99;94798.78;5133455;27;20201;-72
2022/09/21 06:42:29;;;;;;;0.30;0.30;;;;;;;13.40;61.57;94796.16;5133301;27;20197;-72
2022/09/21 06:44:55;;;;;;;0.30;0.30;;;;;;;13.61;60.42;94797.97;5134011;27;20205;-72
2022/09/21 06:47:22;;;;;;;0.17;0.17;;;;;;;14.40;58.11;94807.31;5131454;27;20261;-72
2022/09/21 06:49:49;;;;;;;0.85;0.80;;;;;;;14.13;58.16;94787.88;5132078;27;20735;-74
2022/09/21 06:52:16;;;;;;;0.50;0.40;;;;;;;14.70;55.71;94794.91;5132267;27;20201;-71
2022/09/21 06:54:42;;;;;;;0.20;0.20;;;;;;;14.13;59.13;94800.69;5132243;27;20240;-74
2022/09/21 06:57:11;;;;;;;0.20;0.20;;;;;;;15.95;54.59;94793.28;5132413;27;20189;-73
2022/09/21 06:59:38;;;;;;;0.30;0.30;;;;;;;15.56;55.22;94803.34;5132441;27;20308;-78
2022/09/21 07:02:04;;;;;;;0.90;0.73;;;;;;;14.84;57.44;94806.19;5132858;27;20196;-73
2022/09/21 07:04:31;;;;;;;0.20;0.20;;;;;;;16.00;54.14;94795.72;5132798;27;20679;-73
2022/09/21 07:06:59;;;;;;;0.32;0.32;;;;;;;15.32;54.00;94798.81;5132800;27;20201;-80
2022/09/21 07:09:26;;;;;;;0.57;0.57;;;;;;;15.21;55.97;94797.75;5132263;27;20204;-73
2022/09/21 07:11:54;;;;;;;0.30;0.30;;;;;;;14.81;56.67;94806.09;5132411;27;20713;-72
2022/09/21 07:14:23;;;;;;;0.25;0.25;;;;;;;14.91;57.20;94805.56;5132195;27;20240;-72
2022/09/21 07:16:49;;;;;;;1.23;0.80;;;;;;;14.52;57.87;94805.34;5132416;27;20655;-72
2022/09/21 07:19:16;;;;;;;1.63;1.00;;;;;;;13.87;59.39;94815.50;5132446;27;20201;-72
2022/09/21 07:21:43;;;;;;;0.55;0.38;;;;;;;13.82;59.79;94798.59;5132137;27;20204;-74
2022/09/21 07:24:10;;;;;;;0.20;0.20;;;;;;;13.31;60.92;94805.59;5132551;27;20230;-75
2022/09/21 07:26:37;;;;;;;0.40;0.40;;;;;;;13.13;61.77;94810.41;5132087;27;20277;-73
2022/09/21 07:29:04;;;;;;;0.28;0.28;;;;;;;13.46;61.56;94813.88;5132004;27;20761;-72
2022/09/21 07:31:32;;;;;;;0.65;0.43;;;;;;;13.01;62.83;94810.41;5132245;27;20197;-73
2022/09/21 07:33:59;;;;;;;0.30;0.30;;;;;;;13.30;62.91;94810.22;5132066;27;20232;-72
2022/09/21 07:36:26;;;;;;;0.32;0.32;;;;;;;13.19;62.24;94819.97;5133127;27;20241;-76
2022/09/21 07:38:53;;;;;;;0.20;0.20;;;;;;;12.72;64.48;94822.22;5119423;27;20209;-76
2022/09/21 07:41:20;;;;;;;0.80;0.80;;;;;;;12.33;65.89;94829.00;5132307;27;20196;-73
2022/09/21 07:43:47;;;;;;;0.32;0.32;;;;;;;12.67;65.24;94825.19;5132364;27;20197;-73
2022/09/21 07:46:15;;;;;;;0.20;0.20;;;;;;;12.67;65.33;94820.53;5131835;27;20250;-74
2022/09/21 07:48:43;;;;;;;0.30;0.30;;;;;;;12.51;64.88;94816.88;5131187;27;20282;-71
2022/09/21 07:51:12;;;;;;;0.68;0.68;;;;;;;12.82;64.23;94819.91;5131977;27;20197;-72
2022/09/21 07:53:41;;;;;;;0.30;0.30;;;;;;;12.56;64.33;94813.94;5131679;27;20228;-72
2022/09/21 07:56:09;;;;;;;0.28;0.28;;;;;;;12.77;64.53;94824.75;5131158;27;20201;-73
2022/09/21 08:01:22;;;;;;;0.60;0.40;;;;;;;13.06;63.61;94821.88;5131243;27;20290;-73
2022/09/21 08:03:51;;;;;;;0.30;0.30;;;;;;;13.04;63.47;94812.44;5131427;27;20282;-73
2022/09/21 08:06:19;;;;;;;0.30;0.30;;;;;;;13.57;62.17;94813.41;5131646;27;20242;-73
2022/09/21 08:08:47;;;;;;;0.20;0.20;;;;;;;13.03;62.48;94816.31;5131016;27;20597;-75
2022/09/21 08:11:15;;;;;;;0.40;0.40;;;;;;;13.21;62.22;94817.72;5131439;27;20232;-73
2022/09/21 08:13:42;;;;;;;1.20;0.95;;;;;;;13.34;60.56;94827.47;5130709;27;20276;-71
2022/09/21 08:16:09;;;;;;;0.65;0.63;;;;;;;13.70;60.33;94812.25;5131249;27;20212;-74
2022/09/21 08:18:37;;;;;;;0.77;0.43;;;;;;;13.64;59.92;94813.63;5130861;27;20223;-71
2022/09/21 08:21:07;;;;;;;0.40;0.40;;;;;;;13.23;61.27;94810.00;5117455;27;20299;-74
2022/09/21 08:23:33;;;;;;;0.20;0.20;;;;;;;13.94;60.30;94814.91;5130223;27;20224;-72
2022/09/21 08:26:01;;;;;;;1.08;0.73;;;;;;;13.97;59.82;94813.44;5130978;27;20209;-72
2022/09/21 08:28:29;;;;;;;0.10;0.10;;;;;;;13.87;60.07;94817.44;5124706;27;20246;-72
2022/09/21 08:30:59;;;;;;;0.30;0.30;;;;;;;14.26;58.79;94809.63;5130617;27;20207;-73
2022/09/21 08:33:26;;;;;;;0.45;0.40;;;;;;;13.88;59.29;94802.69;5130167;27;20205;-74
2022/09/21 08:35:53;;;;;;;0.20;0.20;;;;;;;14.44;59.86;94806.28;5130421;27;20197;-73
2022/09/21 08:38:21;;;;;;;0.40;0.40;;;;;;;14.61;57.55;94802.47;5130857;27;20203;-74
2022/09/21 08:40:49;;;;;;;2.20;0.90;;;;;;;14.80;57.00;94791.66;5130860;27;20241;-72
2022/09/21 08:43:22;;;;;;;0.30;0.30;;;;;;;15.32;55.24;94793.34;5130463;27;20695;-72
2022/09/21 08:45:49;;;;;;;0.20;0.20;;;;;;;15.27;55.34;94790.91;5131297;27;20253;-73
2022/09/21 08:48:20;;;;;;;0.20;0.20;;;;;;;14.97;55.33;94795.22;5130370;27;20229;-73
2022/09/21 08:50:51;;;;;;;0.30;0.30;;;;;;;14.64;56.63;94790.84;5130804;27;20245;-73
2022/09/21 08:53:25;;;;;;;0.45;0.45;;;;;;;14.60;56.28;94789.97;5130485;27;20197;-75
2022/09/21 08:55:55;;;;;;;0.20;0.20;;;;;;;14.07;58.35;94789.25;5130339;27;20216;-75
2022/09/21 08:58:24;;;;;;;0.20;0.20;;;;;;;14.61;57.44;94785.31;5130107;27;20257;-73
2022/09/21 09:01:05;;;;;;;0.43;0.43;;;;;;;14.79;55.91;94784.63;5129554;27;20287;-73
2022/09/21 09:04:04;;;;;;;0.82;0.77;;;;;;;14.90;55.40;94782.97;5117825;27;20199;-72
2022/09/21 09:06:40;;;;;;;0.20;0.20;;;;;;;14.62;56.72;94771.34;5129979;27;20250;-72
2022/09/21 09:09:33;;;;;;;0.10;0.10;;;;;;;14.83;56.95;94766.44;5130052;27;20226;-73
2022/09/21 09:12:14;;;;;;;1.17;0.35;;;;;;;15.23;53.64;94773.66;5129919;27;20209;-73
2022/09/21 09:15:04;;;;;;;0.88;0.30;;;;;;;15.39;54.26;94771.69;5129904;27;20316;-72
2022/09/21 09:17:46;;;;;;;0.20;0.20;;;;;;;14.67;56.48;94776.53;5130231;27;20640;-72
2022/09/21 09:20:17;;;;;;;0.32;0.32;;;;;;;14.41;57.60;94765.31;5129840;27;20201;-73
2022/09/21 09:22:47;;;;;;;0.52;0.52;;;;;;;14.62;56.36;94760.44;5130016;27;20588;-72
2022/09/21 09:25:20;;;;;;;0.25;0.25;;;;;;;14.08;55.33;94757.34;5130565;27;20189;-77
2022/09/21 09:27:51;;;;;;;0.20;0.20;;;;;;;14.49;55.69;94756.16;5129669;27;20755;-72
2022/09/21 09:30:20;;;;;;;0.20;0.20;;;;;;;14.58;56.24;94757.59;5129204;27;20238;-73
2022/09/21 09:32:54;;;;;;;0.20;0.20;;;;;;;14.41;57.16;94759.84;5129018;27;20292;-73
2022/09/21 09:35:27;;;;;;;0.50;0.50;;;;;;;14.37;56.17;94757.00;5118010;27;20221;-75
2022/09/21 09:37:59;;;;;;;0.40;0.40;;;;;;;14.16;55.37;94765.38;5128957;27;20760;-73
2022/09/21 09:41:03;;;;;;;0.77;0.77;;;;;;;14.36;54.13;94755.41;5129129;27;20564;-73
2022/09/21 09:43:42;;;;;;;0.20;0.20;;;;;;;14.44;54.16;94748.25;5082186;27;20193;-73
2022/09/21 09:46:18;;;;;;;0.20;0.20;;;;;;;14.39;54.51;94745.75;5129582;27;20261;-73
2022/09/21 09:49:08;;;;;;;0.13;0.13;;;;;;;14.11;56.48;94740.31;5116205;27;20254;-73
2022/09/21 09:51:38;;;;;;;0.10;0.10;;;;;;;14.16;55.28;94742.78;5129394;28;20209;-73
2022/09/21 09:54:05;;;;;;;0.40;0.40;;;;;;;14.30;52.75;94739.66;5129325;28;20216;-72
2022/09/21 09:56:33;;;;;;;0.40;0.40;;;;;;;14.39;52.62;94729.38;5129892;28;20257;-73
2022/09/21 09:59:07;;;;;;;0.20;0.20;;;;;;;14.50;53.29;94735.94;5129703;28;20296;-73
2022/09/21 10:01:39;;;;;;;0.57;0.57;;;;;;;14.78;52.88;94720.31;5129414;28;20201;-72
2022/09/21 10:04:08;;;;;;;0.20;0.20;;;;;;;15.16;52.88;94724.38;5129483;27;20201;-73
2022/09/21 10:06:36;;;;;;;0.50;0.50;;;;;;;15.35;52.31;94716.22;5128989;28;20212;-73
2022/09/21 10:09:19;;;;;;;0.73;0.73;;;;;;;14.48;53.34;94721.91;5129109;27;20305;-80
2022/09/21 10:11:48;;;;;;;0.40;0.40;;;;;;;14.09;54.68;94716.13;5129750;27;20284;-78
2022/09/21 10:14:18;;;;;;;0.80;0.70;;;;;;;13.92;55.94;94715.66;5132872;27;20260;-74
2022/09/21 10:16:45;;;;;;;0.40;0.40;;;;;;;13.83;55.75;94713.84;5134136;27;20246;-72
2022/09/21 10:19:18;;;;;;;0.47;0.47;;;;;;;13.91;55.31;94709.41;5136591;27;20197;-75
2022/09/21 10:21:46;;;;;;;0.10;0.10;;;;;;;13.88;54.82;94718.28;5135057;27;21086;-74
2022/09/21 10:24:20;;;;;;;0.13;0.13;;;;;;;14.15;54.62;94716.69;5133407;27;20221;-72
2022/09/21 10:26:53;;;;;;;0.20;0.20;;;;;;;13.87;55.10;94713.97;5133381;27;20191;-72
2022/09/21 10:29:31;;;;;;;0.30;0.30;;;;;;;13.91;54.31;94709.41;5133074;27;20713;-71
2022/09/21 10:32:00;;;;;;;0.38;0.38;;;;;;;13.90;54.83;94709.75;5133016;27;20200;-75
2022/09/21 10:34:29;;;;;;;0.13;0.13;;;;;;;13.85;55.08;94711.59;5133061;27;20687;-72
2022/09/21 10:36:57;;;;;;;0.30;0.30;;;;;;;14.05;53.51;94718.00;5131073;27;20200;-75
2022/09/21 10:39:27;;;;;;;0.17;0.17;;;;;;;14.33;52.95;94692.66;5132929;27;20250;-76
2022/09/21 10:42:00;;;;;;;0.10;0.10;;;;;;;14.49;51.36;94696.19;5133476;27;20192;-72
2022/09/21 10:44:29;;;;;;;0.20;0.20;;;;;;;14.66;50.59;94695.84;5133496;27;20193;-76
2022/09/21 10:46:58;;;;;;;0.20;0.20;;;;;;;14.45;50.97;94685.22;5133005;27;20245;-74
2022/09/21 10:49:27;;;;;;;0.20;0.20;;;;;;;15.02;50.39;94691.28;5132927;27;20228;-73
2022/09/21 10:51:57;;;;;;;0.10;0.10;;;;;;;14.92;49.07;94679.75;5132938;27;20201;-73
2022/09/21 10:54:27;;;;;;;0.10;0.10;;;;;;;15.10;49.25;94679.38;5133216;27;20188;-73
2022/09/21 10:57:01;;;;;;;0.35;0.35;;;;;;;15.53;47.94;94672.94;5133866;27;20200;-73
2022/09/21 10:59:30;;;;;;;0.20;0.20;;;;;;;15.14;49.47;94669.34;5133644;27;20200;-73
2022/09/21 11:01:59;;;;;;;0.28;0.28;;;;;;;15.17;49.84;94672.13;5132657;27;20205;-74
2022/09/21 11:04:42;;;;;;;0.20;0.20;;;;;;;14.54;50.72;94682.31;5129417;27;20614;-75
2022/09/21 11:07:17;;;;;;;0.40;0.40;;;;;;;14.38;51.12;94673.28;5133526;27;20242;-74
2022/09/21 11:09:53;;;;;;;0.50;0.50;;;;;;;14.46;50.62;94666.94;5119762;27;20251;-72
2022/09/21 11:12:36;;;;;;;0.57;0.50;;;;;;;14.92;50.28;94673.50;5132121;27;20197;-71
2022/09/21 11:15:15;;;;;;;0.20;0.20;;;;;;;14.57;50.01;94673.44;5132351;27;20212;-74
2022/09/21 11:17:49;;;;;;;1.23;0.50;;;;;;;15.14;48.56;94663.91;5132425;27;20246;-75
2022/09/21 11:20:26;;;;;;;0.38;0.38;;;;;;;15.29;49.37;94674.00;5131914;27;20189;-74
2022/09/21 11:23:03;;;;;;;0.32;0.32;;;;;;;14.84;48.65;94669.81;5120514;27;20220;-73
2022/09/21 11:25:36;;;;;;;0.10;0.10;;;;;;;15.14;48.12;94661.16;5132428;27;20645;-73
2022/09/21 11:28:13;;;;;;;0.22;0.22;;;;;;;15.57;47.26;94652.00;5132572;27;20638;-72
2022/09/21 11:31:15;;;;;;;0.15;0.15;;;;;;;15.42;45.68;94652.81;5131931;27;20640;-73
2022/09/21 11:34:03;;;;;;;0.60;0.50;;;;;;;16.28;46.16;94659.63;5132153;27;20245;-73
2022/09/21 11:36:42;;;;;;;0.20;0.20;;;;;;;16.68;45.68;94658.41;5132092;27;20254;-73
2022/09/21 11:39:18;;;;;;;0.30;0.30;;;;;;;15.64;46.17;94663.06;5132404;27;20249;-73
2022/09/21 11:41:59;;;;;;;0.10;0.10;;;;;;;15.20;47.04;94659.72;5132702;27;20249;-78
2022/09/21 11:44:41;;;;;;;0.50;0.50;;;;;;;14.46;48.36;94675.13;5132216;27;20200;-77
2022/09/21 11:47:21;;;;;;;0.65;0.50;;;;;;;14.55;48.17;94673.00;5118663;27;20213;-78
2022/09/21 11:50:06;;;;;;;0.40;0.40;;;;;;;14.32;48.27;94669.25;5131398;27;20232;-73
2022/09/21 11:52:46;;;;;;;0.20;0.20;;;;;;;14.08;49.18;94670.97;5132001;27;20200;-73
2022/09/21 11:55:48;;;;;;;0.30;0.30;;;;;;;14.04;53.30;94669.31;5117830;27;20725;-73
2022/09/21 11:58:23;;;;;;;0.20;0.20;;;;;;;13.48;56.41;94683.69;5132083;27;20273;-79
2022/09/21 12:01:02;;;;;;;0.30;0.30;;;;;;;13.10;58.12;94686.00;5131643;27;20196;-79